• Join FlightAware (Why Join?)
  • Login
  • US Flag 
04:46AM EDT


 

Airport Tracker/Info


-or-


 

Live Flight TrackerFlight Track Log ✈ MAS193 ✈ 08-May-2013 ✈ VOBL / BLR - WMKK / KUL

Flight Track Log - Related Links

Times and Time Zones

All times are in EDT time to prevent confusion due to time zone crossing. See the MAS193 flight status page for this flight to view local times or setup timezone preferences in your user account.

Time Position Orientation Groundspeed Altitude Reporting Facility
EDT Latitude Longitude Course Direction KTS MPH feet Rate Location/Type
03:08PM 13.2080 77.7300 88° East 189 217 3,900  Level FlightAware
03:09PM 13.2070 77.7580 92° East 217 250 4,600 1,200 Climbing FlightAware
03:09PM 13.2010 77.7860 102° East 251 289 5,000 960 Climbing FlightAware
03:10PM 13.1870 77.8240 111° Southeast 296 341 5,500 960 Climbing FlightAware
03:10PM 13.1760 77.8570 109° East 328 377 5,900 1,740 Climbing FlightAware
03:11PM 13.1600 77.9030 110° East 342 394 7,100 2,400 Climbing FlightAware
03:11PM 13.1440 77.9510 109° East 352 405 8,300 2,580 Climbing FlightAware
03:12PM 13.1300 77.9920 109° East 358 412 9,500 3,000 Climbing FlightAware
03:12PM 13.1050 78.0620 110° East 352 405 11,800 2,700 Climbing FlightAware
03:13PM 13.0840 78.1250 109° East 359 413 13,400 2,280 Climbing FlightAware
03:14PM 13.0580 78.2000 110° East 371 427 15,100 2,220 Climbing FlightAware
03:14PM 13.0350 78.2670 109° East 376 433 16,600 1,980 Climbing FlightAware
03:15PM 13.0110 78.3350 110° East 387 445 17,800 1,740 Climbing FlightAware
03:16PM 12.9880 78.4130 107° East 396 456 19,100 1,860 Climbing FlightAware
03:17PM 12.9680 78.4870 105° East 400 460 20,500 1,980 Climbing FlightAware
03:17PM 12.9480 78.5600 106° East 403 464 21,800 1,740 Climbing FlightAware
03:18PM 12.9260 78.6410 106° East 407 468 23,000 1,380 Climbing FlightAware
03:19PM 12.9040 78.7200 106° East 420 483 23,800 1,200 Climbing FlightAware
03:19PM 12.8800 78.8050 106° East 431 496 24,700 1,200 Climbing FlightAware
03:20PM 12.8580 78.8860 106° East 439 505 25,500 1,200 Climbing FlightAware
03:21PM 12.8350 78.9670 106° East 446 513 26,300 1,200 Climbing FlightAware
03:21PM 12.8120 79.0490 106° East 452 520 27,100 1,080 Climbing FlightAware
03:22PM 12.7860 79.1440 106° East 459 528 27,900 960 Climbing FlightAware
03:23PM 12.7640 79.2230 106° East 467 537 28,500 960 Climbing FlightAware
03:24PM 12.7360 79.3230 106° East 472 543 29,300 1,200 Climbing FlightAware
03:24PM 12.7120 79.4080 106° East 472 543 30,200 1,200 Climbing FlightAware
03:25PM 12.6910 79.4820 106° East 473 544 30,800 1,200 Climbing FlightAware
03:26PM 12.6600 79.5920 106° East 471 542 31,900 1,260 Climbing FlightAware
03:26PM 12.6360 79.6780 106° East 469 540 32,700 1,200 Climbing FlightAware
03:27PM 12.6090 79.7750 106° East 464 534 33,600 1,200 Climbing FlightAware
03:28PM 12.5860 79.8580 106° East 460 529 34,400 960 Climbing FlightAware
03:28PM 12.5590 79.9510 107° East 457 526 35,000 420 Climbing FlightAware
03:29PM 12.5360 80.0330 106° East 457 526 35,000  Level FlightAware
03:30PM 12.5120 80.1160 106° East 457 526 35,000 480 Level FlightAware
03:31PM 12.4850 80.2120 106° East 456 525 35,700 840 Climbing FlightAware
03:31PM 12.4620 80.2940 106° East 454 522 36,200 660 Climbing FlightAware
03:32PM 12.4360 80.3850 106° East 456 525 36,700 540 Climbing FlightAware
03:33PM 12.4130 80.4670 106° East 457 526 37,000 180 Climbing FlightAware
03:33PM 12.3890 80.5510 106° East 457 526 37,000  Level FlightAware
03:34PM 12.3620 80.6450 106° East 457 526 37,000  Level FlightAware
03:35PM 12.3380 80.7300 106° East 457 526 37,000  Level FlightAware
03:35PM 12.3140 80.8120 107° East 456 525 37,000  Level FlightAware
03:36PM 12.2880 80.9030 106° East 455 524 37,000  Level FlightAware
03:37PM 12.2650 80.9850 106° East 454 522 37,000  Level FlightAware
03:38PM 12.2380 81.0800 106° East 452 520 37,000  Level FlightAware
03:38PM 12.2150 81.1600 106° East 450 518 37,000  Level FlightAware
03:39PM 12.1910 81.2420 107° East 450 518 37,000  Level FlightAware
03:40PM 12.1650 81.3320 106° East 450 518 37,000  Level FlightAware
03:40PM 12.1410 81.4140 107° East 452 520 37,000  Level FlightAware
03:41PM 12.1150 81.5070 106° East 452 520 37,000  Level FlightAware
03:42PM 12.0910 81.5890 107° East 452 520 37,000  Level FlightAware
03:42PM 12.0670 81.6710 107° East 453 521 37,000  Level FlightAware
03:43PM 12.0460 81.7420 107° East 454 522 37,000  Level FlightAware
03:44PM 12.0040 81.8880 106° East 455 524 37,000  Level FlightAware
03:45PM 11.9790 81.9740 107° East 455 524 37,000  Level FlightAware
03:46PM 11.9490 82.0750 107° East 454 522 37,000  Level FlightAware
03:46PM 11.9320 82.1390 105° East 454 522 37,000  Level FlightAware
03:47PM 11.8950 82.2620 107° East 453 521 37,000  Level FlightAware
03:48PM 11.8710 82.3500 106° East 453 521 37,000  Level FlightAware
03:49PM 11.8510 82.4200 106° East 453 521 37,000  Level FlightAware
03:49PM 11.8320 82.4900 105° East 453 521 37,000  Level FlightAware
03:50PM 11.8120 82.5600 106° East 453 521 37,000  Level FlightAware
03:51PM 11.7920 82.6300 106° East 453 521 37,000  Level FlightAware
03:52PM 11.7680 82.7170 106° East 453 521 37,000  Level FlightAware
03:52PM 11.7480 82.7870 106° East 453 521 37,000  Level FlightAware
03:53PM 11.7280 82.8570 106° East 453 521 37,000  Level FlightAware
03:54PM 11.7090 82.9270 105° East 453 521 37,000  Level FlightAware
03:54PM 11.6840 83.0140 106° East 453 521 37,000  Level FlightAware
03:55PM 11.6650 83.0840 105° East 453 521 37,000  Level FlightAware
03:56PM 11.6450 83.1540 106° East 453 521 37,000  Level FlightAware
03:56PM 11.6250 83.2240 106° East 453 521 37,000  Level FlightAware
03:59PM 11.5240 83.4505 114° Southeast  Level Estimated
04:00PM 11.4767 83.5566 114° Southeast  Level Estimated
04:01PM 11.4292 83.6626 115° Southeast  Level Estimated
04:02PM 11.3818 83.7687 115° Southeast  Level Estimated
04:03PM 11.3343 83.8747 115° Southeast  Level Estimated
04:04PM 11.2867 83.9806 115° Southeast  Level Estimated
04:05PM 11.2392 84.0865 115° Southeast  Level Estimated
04:06PM 11.1915 84.1924 115° Southeast  Level Estimated
04:07PM 11.1439 84.2983 115° Southeast  Level Estimated
04:08PM 11.0962 84.4041 115° Southeast  Level Estimated
04:09PM 11.0485 84.5099 115° Southeast  Level Estimated
04:10PM 11.0007 84.6156 115° Southeast  Level Estimated
04:11PM 10.9529 84.7214 115° Southeast  Level Estimated
04:12PM 10.9051 84.8270 115° Southeast  Level Estimated
04:13PM 10.8572 84.9327 115° Southeast  Level Estimated
04:14PM 10.8093 85.0383 115° Southeast  Level Estimated
04:15PM 10.7614 85.1439 115° Southeast  Level Estimated
04:16PM 10.7134 85.2494 115° Southeast  Level Estimated
04:17PM 10.6654 85.3549 115° Southeast  Level Estimated
04:18PM 10.6173 85.4604 115° Southeast  Level Estimated
04:19PM 10.5693 85.5659 115° Southeast  Level Estimated
04:20PM 10.5211 85.6713 115° Southeast  Level Estimated
04:21PM 10.4730 85.7767 115° Southeast  Level Estimated
04:22PM 10.4248 85.8820 115° Southeast  Level Estimated
04:23PM 10.3766 85.9873 115° Southeast  Level Estimated
04:24PM 10.3283 86.0926 115° Southeast  Level Estimated
04:25PM 10.2800 86.1979 115° Southeast  Level Estimated
04:26PM 10.2317 86.3031 115° Southeast  Level Estimated
04:27PM 10.1833 86.4083 115° Southeast  Level Estimated
04:28PM 10.1349 86.5134 115° Southeast  Level Estimated
04:29PM 10.0865 86.6185 115° Southeast  Level Estimated
04:30PM 10.0380 86.7236 115° Southeast  Level Estimated
04:31PM 9.9896 86.8287 115° Southeast  Level Estimated
04:32PM 9.9410 86.9337 115° Southeast  Level Estimated
04:33PM 9.8925 87.0387 115° Southeast  Level Estimated
04:34PM 9.8439 87.1437 115° Southeast  Level Estimated
04:35PM 9.7953 87.2486 115° Southeast  Level Estimated
04:36PM 9.7466 87.3535 115° Southeast  Level Estimated
04:37PM 9.6979 87.4584 115° Southeast  Level Estimated
04:38PM 9.6492 87.5632 115° Southeast  Level Estimated
04:39PM 9.6004 87.6681 115° Southeast  Level Estimated
04:40PM 9.5517 87.7728 115° Southeast  Level Estimated
04:41PM 9.5028 87.8776 115° Southeast  Level Estimated
04:42PM 9.4540 87.9823 115° Southeast  Level Estimated
04:43PM 9.4051 88.0870 115° Southeast  Level Estimated
04:44PM 9.3562 88.1917 115° Southeast  Level Estimated
04:45PM 9.3073 88.2963 115° Southeast  Level Estimated
04:46PM 9.2583 88.4009 115° Southeast  Level Estimated
04:47PM 9.2093 88.5055 115° Southeast  Level Estimated
04:48PM 9.1603 88.6100 115° Southeast  Level Estimated
04:49PM 9.1112 88.7145 115° Southeast  Level Estimated
04:50PM 9.0621 88.8190 115° Southeast  Level Estimated
04:51PM 9.0130 88.9235 115° Southeast  Level Estimated
04:52PM 8.9639 89.0279 115° Southeast  Level Estimated
04:53PM 8.9147 89.1323 115° Southeast  Level Estimated
04:54PM 8.8655 89.2367 116° Southeast  Level Estimated
04:55PM 8.8162 89.3410 116° Southeast  Level Estimated
04:56PM 8.7670 89.4454 116° Southeast  Level Estimated
04:57PM 8.7177 89.5497 116° Southeast  Level Estimated
04:58PM 8.6684 89.6539 116° Southeast  Level Estimated
04:59PM 8.6190 89.7582 116° Southeast  Level Estimated
05:00PM 8.5696 89.8624 116° Southeast  Level Estimated
05:01PM 8.5202 89.9666 116° Southeast  Level Estimated
05:02PM 8.4708 90.0707 116° Southeast  Level Estimated
05:03PM 8.4213 90.1749 116° Southeast  Level Estimated
05:04PM 8.3719 90.2790 116° Southeast  Level Estimated
05:05PM 8.3223 90.3830 116° Southeast  Level Estimated
05:06PM 8.2728 90.4871 116° Southeast  Level Estimated
05:07PM 8.2232 90.5911 116° Southeast  Level Estimated
05:08PM 8.1736 90.6951 116° Southeast  Level Estimated
05:09PM 8.1240 90.7991 116° Southeast  Level Estimated
05:10PM 8.0744 90.9030 116° Southeast  Level Estimated
05:11PM 8.0247 91.0069 116° Southeast  Level Estimated
05:12PM 7.9750 91.1108 116° Southeast  Level Estimated
05:13PM 7.9253 91.2147 116° Southeast  Level Estimated
05:14PM 7.8755 91.3186 116° Southeast  Level Estimated
05:15PM 7.8257 91.4224 116° Southeast  Level Estimated
05:16PM 7.7759 91.5262 116° Southeast  Level Estimated
05:17PM 7.7261 91.6300 116° Southeast  Level Estimated
05:18PM 7.6763 91.7337 116° Southeast  Level Estimated
05:19PM 7.6264 91.8374 116° Southeast  Level Estimated
05:20PM 7.5765 91.9411 116° Southeast  Level Estimated
05:21PM 7.5266 92.0448 116° Southeast  Level Estimated
05:22PM 7.4766 92.1484 116° Southeast  Level Estimated
05:23PM 7.4266 92.2521 116° Southeast  Level Estimated
05:24PM 7.3766 92.3557 116° Southeast  Level Estimated
05:25PM 7.3266 92.4593 116° Southeast  Level Estimated
05:26PM 7.2766 92.5628 116° Southeast  Level Estimated
05:27PM 7.2265 92.6663 116° Southeast  Level Estimated
05:28PM 7.1764 92.7699 116° Southeast  Level Estimated
05:29PM 7.1263 92.8733 116° Southeast  Level Estimated
05:30PM 7.0761 92.9768 116° Southeast  Level Estimated
05:31PM 7.0260 93.0802 116° Southeast  Level Estimated
05:32PM 6.9758 93.1837 116° Southeast  Level Estimated
05:33PM 6.9256 93.2871 116° Southeast  Level Estimated
05:34PM 6.8753 93.3904 116° Southeast  Level Estimated
05:35PM 6.8251 93.4938 116° Southeast  Level Estimated
05:36PM 6.7748 93.5971 116° Southeast  Level Estimated
05:37PM 6.7245 93.7004 116° Southeast  Level Estimated
05:38PM 6.6742 93.8037 116° Southeast  Level Estimated
05:39PM 6.6239 93.9070 116° Southeast  Level Estimated
05:40PM 6.5735 94.0102 116° Southeast  Level Estimated
05:41PM 6.5231 94.1135 116° Southeast  Level Estimated
05:42PM 6.4727 94.2167 116° Southeast  Level Estimated
05:43PM 6.4223 94.3199 116° Southeast  Level Estimated
05:44PM 6.3719 94.4230 116° Southeast  Level Estimated
05:45PM 6.3214 94.5262 116° Southeast  Level Estimated
05:46PM 6.2709 94.6293 116° Southeast  Level Estimated
05:47PM 6.2204 94.7324 116° Southeast  Level Estimated
05:48PM 6.1699 94.8355 116° Southeast  Level Estimated
05:49PM 6.1193 94.9385 116° Southeast  Level Estimated
05:50PM 6.0688 95.0416 116° Southeast  Level Estimated
05:51PM 6.0182 95.1446 116° Southeast  Level Estimated
05:52PM 5.9676 95.2476 116° Southeast  Level Estimated
05:53PM 5.9170 95.3506 116° Southeast  Level Estimated
05:54PM 5.8663 95.4536 116° Southeast  Level Estimated
05:55PM 5.8157 95.5565 116° Southeast  Level Estimated
05:56PM 5.7650 95.6594 116° Southeast  Level Estimated
05:57PM 5.7143 95.7624 116° Southeast  Level Estimated
05:58PM 5.6636 95.8652 116° Southeast  Level Estimated
05:59PM 5.6128 95.9681 116° Southeast  Level Estimated
06:00PM 5.5621 96.0710 116° Southeast  Level Estimated
06:01PM 5.5113 96.1738 116° Southeast  Level Estimated
06:02PM 5.4605 96.2766 116° Southeast  Level Estimated
06:03PM 5.4097 96.3795 116° Southeast  Level Estimated
06:04PM 5.3589 96.4822 116° Southeast  Level Estimated
06:05PM 5.3081 96.5850 116° Southeast  Level Estimated
06:06PM 5.2572 96.6878 116° Southeast  Level Estimated
06:07PM 5.2063 96.7905 116° Southeast  Level Estimated
06:08PM 5.1554 96.8932 116° Southeast  Level Estimated
06:09PM 5.1045 96.9959 116° Southeast  Level Estimated
06:10PM 5.0536 97.0986 116° Southeast  Level Estimated
06:11PM 5.0027 97.2013 116° Southeast  Level Estimated
06:12PM 4.9517 97.3039 116° Southeast  Level Estimated
06:13PM 4.9007 97.4066 116° Southeast  Level Estimated
06:14PM 4.8498 97.5092 116° Southeast  Level Estimated
06:15PM 4.7987 97.6118 117° Southeast  Level Estimated
06:16PM 4.7477 97.7144 117° Southeast  Level Estimated
06:17PM 4.6967 97.8170 117° Southeast  Level Estimated
06:17PM 3.9530 99.1840 117° Southeast 443 510 37,000  Level FlightAware
06:18PM 4.6456 97.9195 117° Southeast  Level Estimated
06:19PM 4.5946 98.0221 117° Southeast  Level Estimated
06:19PM 3.8480 99.4040 116° Southeast 442 509 37,000  Level FlightAware
06:22PM 3.7183 99.6761 116° Southeast  Level Estimated
06:23PM 3.6691 99.7794 116° Southeast  Level Estimated
06:24PM 3.6198 99.8827 116° Southeast  Level Estimated
06:25PM 3.5705 99.9860 116° Southeast  Level Estimated
06:25PM 3.6540 100.1620 116° Southeast 452 520 37,000  Level FlightAware
06:26PM 3.6360 100.2440 102° East 454 522 35,900 -2,280 Descending FlightAware
06:26PM 3.6230 100.3280 99° East 461 531 34,000 -2,520 Descending FlightAware
06:27PM 3.6080 100.4200 99° East 450 518 32,400 -2,100 Descending FlightAware
06:28PM 3.5950 100.4920 100° East 445 512 31,100 -2,100 Descending FlightAware
06:29PM 3.5520 100.5740 118° Southeast 434 499 29,500 -2,100 Descending FlightAware
06:29PM 3.4990 100.6320 132° Southeast 422 486 28,200 -1,800 Descending FlightAware
06:30PM 3.4440 100.6880 135° Southeast 410 472 27,100 -1,860 Descending FlightAware
06:32PM 3.3220 100.8200 133° Southeast 412 474 24,100 -1,380 Descending FlightAware
06:32PM 3.2780 100.8680 133° Southeast 412 474 24,100 -2,280 Level FlightAware
06:33PM 3.2100 100.9420 133° Southeast 429 494 20,900 -2,880 Descending FlightAware
06:34PM 3.1610 100.9940 133° Southeast 426 490 20,300 -960 Descending FlightAware
06:34PM 3.0960 101.0660 132° Southeast 419 482 19,500 -960 Descending FlightAware
06:35PM 3.0390 101.1280 133° Southeast 415 478 18,800 -1,140 Descending FlightAware
06:36PM 2.9680 101.2060 132° Southeast 400 460 17,700 -1,560 Descending FlightAware
06:37PM 2.9110 101.2670 133° Southeast 396 456 16,200 -2,100 Descending FlightAware
06:37PM 2.8760 101.3050 133° Southeast 392 451 15,100 -2,040 Descending FlightAware
06:38PM 2.8180 101.3700 132° Southeast 387 445 13,500 -1,380 Descending FlightAware
06:39PM 2.7800 101.4110 133° Southeast 385 443 13,200 -2,040 Descending FlightAware
06:39PM 2.7200 101.4760 133° Southeast 376 433 10,800 -2,820 Descending FlightAware
06:40PM 2.6800 101.5220 131° Southeast 367 422 9,500 -2,220 Descending FlightAware
06:40PM 2.6520 101.5520 133° Southeast 361 415 8,600 -2,100 Descending FlightAware
06:41PM 2.6230 101.5860 130° Southeast 353 406 7,600 -2,400 Descending FlightAware
06:41PM 2.6030 101.6080 132° Southeast 345 397 6,800 -2,400 Descending FlightAware
06:41PM 2.5910 101.6220 131° Southeast 339 390 6,400 -1,080 Descending FlightAware
06:42PM 2.5650 101.6520 131° Southeast 309 356 6,100 -540 Descending FlightAware
06:43PM 2.5410 101.7030 115° Southeast 262 302 5,800 -600 Descending FlightAware
06:43PM 2.5290 101.7340 111° Southeast 243 280 5,400 -1,020 Descending FlightAware
06:44PM 2.5160 101.7760 107° East 230 265 4,700 -1,140 Descending FlightAware
06:44PM 2.5210 101.7940 74° East 220 253 4,300 -1,200 Descending FlightAware
06:44PM 2.5350 101.8130 54° Northeast 209 241 3,800 -1,080 Descending FlightAware
06:45PM 2.5520 101.8190 19° North 197 227 3,500 -600 Descending FlightAware
06:45PM 2.5700 101.8140 344° North 181 208 3,400 -720 Descending FlightAware
06:46PM 2.5910 101.8000 326° Northwest 186 214 2,900 -1,020 Descending FlightAware
06:46PM 2.6090 101.7880 326° Northwest 184 212 2,500 -900 Descending FlightAware
06:47PM 2.6300 101.7740 326° Northwest 175 201 2,100 -900 Descending FlightAware
06:47PM 2.6480 101.7620 326° Northwest 169 194 1,600 -900 Descending FlightAware
06:47PM 2.6660 101.7500 326° Northwest 152 175 1,300 -720 Descending FlightAware
06:48PM 2.6730 101.7450 324° Northwest 147 169 1,100 -600 Descending FlightAware
06:51PM 2.7456 101.7099 334° Northwest  Level Estimated
06:52PM 2.7456 101.7099 236° Southwest  Level Estimated
06:53PM 2.7456 101.7099 236° Southwest  Level Estimated
06:54PM 2.7456 101.7099 236° Southwest  Level Estimated
06:55PM 2.7456 101.7099 236° Southwest  Level Estimated
06:56PM 2.7456 101.7099 236° Southwest  Level Estimated
06:57PM 2.7456 101.7099 236° Southwest  Level Estimated
06:58PM 2.7456 101.7099 236° Southwest  Level Estimated
06:59PM 2.7456 101.7099 236° Southwest  Level Estimated
07:00PM 2.7456 101.7099 236° Southwest  Level Estimated